Time;durP1;ratioP1;P1;durP2;ratioP2;P2;SDS_P1;SDS_P2;PMS_P1;PMS_P2;Temp;Humidity;BMP_temperature;BMP_pressure;BME280_temperature;BME280_humidity;BME280_pressure;Samples;Min_cycle;Max_cycle;Signal;HPM_P1;HPM_P2
2022/08/21 00:00:44;;;;;;;6.35;1.60;;;15.80;99.90;;;;;;5071900;28;20621;-49
2022/08/21 00:03:11;;;;;;;7.20;1.50;;;15.80;99.90;;;;;;5071643;28;20060;-51
2022/08/21 00:05:44;;;;;;;6.80;2.15;;;15.70;99.90;;;;;;5071040;28;20033;-46
2022/08/21 00:08:10;;;;;;;5.43;1.52;;;15.60;99.90;;;;;;5071626;28;20027;-47
2022/08/21 00:10:36;;;;;;;5.43;1.70;;;15.70;99.90;;;;;;5071766;28;20020;-49
2022/08/21 00:13:04;;;;;;;8.63;1.63;;;15.60;99.90;;;;;;5071770;28;20031;-46
2022/08/21 00:15:31;;;;;;;6.90;2.10;;;15.60;99.90;;;;;;5071509;28;20059;-44
2022/08/21 00:17:57;;;;;;;8.50;2.00;;;15.60;99.90;;;;;;5071464;28;20483;-50
2022/08/21 00:20:24;;;;;;;10.10;1.70;;;15.60;99.90;;;;;;5071300;28;20085;-45
2022/08/21 00:22:50;;;;;;;8.93;2.05;;;15.60;99.90;;;;;;5071507;28;20024;-45
2022/08/21 00:25:16;;;;;;;8.60;1.65;;;15.60;99.90;;;;;;5071478;28;20017;-52
2022/08/21 00:27:42;;;;;;;6.00;1.70;;;15.50;99.90;;;;;;5071488;28;20528;-47
2022/08/21 00:30:10;;;;;;;11.18;2.33;;;15.50;99.90;;;;;;5071107;28;20024;-45
2022/08/21 00:32:37;;;;;;;9.25;1.95;;;15.50;99.90;;;;;;5071139;28;20025;-48
2022/08/21 00:35:05;;;;;;;7.35;1.58;;;15.40;99.90;;;;;;5071026;28;20024;-47
2022/08/21 00:37:31;;;;;;;9.48;1.90;;;15.40;99.90;;;;;;5070981;28;20430;-46
2022/08/21 00:39:57;;;;;;;7.15;1.83;;;15.40;99.90;;;;;;5071527;28;20112;-45
2022/08/21 00:42:23;;;;;;;7.30;1.88;;;15.40;99.90;;;;;;5071019;28;20422;-50
2022/08/21 00:44:50;;;;;;;6.35;1.73;;;15.40;99.90;;;;;;5069517;28;20044;-45
2022/08/21 00:47:17;;;;;;;5.57;1.70;;;15.40;99.90;;;;;;5070866;28;20047;-51
2022/08/21 00:49:43;;;;;;;10.70;2.00;;;15.30;99.90;;;;;;5070924;28;20458;-54
2022/08/21 00:52:15;;;;;;;7.85;1.88;;;15.30;99.90;;;;;;5071090;28;20035;-50
2022/08/21 00:54:41;;;;;;;8.00;1.70;;;15.30;99.90;;;;;;5071170;28;20036;-53
2022/08/21 00:57:14;;;;;;;7.72;1.98;;;15.20;99.90;;;;;;5070987;28;20027;-48
2022/08/21 00:59:42;;;;;;;10.77;2.05;;;15.20;99.90;;;;;;5070774;28;20028;-44
2022/08/21 01:02:09;;;;;;;7.70;1.77;;;15.20;99.90;;;;;;5070839;28;20024;-45
2022/08/21 01:04:35;;;;;;;5.90;1.70;;;15.10;99.90;;;;;;5071021;28;20020;-49
2022/08/21 01:07:01;;;;;;;5.88;1.70;;;15.10;99.90;;;;;;5070807;28;20024;-51
2022/08/21 01:09:27;;;;;;;8.88;1.73;;;15.10;99.90;;;;;;5070847;28;20035;-44
2022/08/21 01:11:53;;;;;;;9.82;2.13;;;15.00;99.90;;;;;;5070788;28;20029;-44
2022/08/21 01:14:19;;;;;;;7.28;1.85;;;14.90;99.90;;;;;;5070701;28;20024;-45
2022/08/21 01:16:49;;;;;;;11.65;2.38;;;14.90;99.90;;;;;;5071051;28;20036;-44
2022/08/21 01:19:17;;;;;;;7.20;1.98;;;14.90;99.90;;;;;;5075185;28;20032;-54
2022/08/21 01:21:43;;;;;;;8.07;2.05;;;14.90;99.90;;;;;;5074622;28;20021;-45
2022/08/21 01:24:10;;;;;;;8.73;2.00;;;14.80;99.90;;;;;;5074788;28;20497;-44
2022/08/21 01:26:36;;;;;;;4.70;1.83;;;14.80;99.90;;;;;;5074699;28;20118;-48
2022/08/21 01:29:15;;;;;;;8.25;2.05;;;14.80;99.90;;;;;;5074613;28;20012;-45
2022/08/21 01:31:40;;;;;;;4.85;1.58;;;14.80;99.90;;;;;;5074684;28;20039;-45
2022/08/21 01:34:08;;;;;;;7.03;1.58;;;14.70;99.90;;;;;;5074127;28;20115;-45
2022/08/21 01:36:33;;;;;;;5.97;1.95;;;14.70;99.90;;;;;;5074462;28;20047;-51
2022/08/21 01:39:00;;;;;;;5.63;1.77;;;14.60;99.90;;;;;;5074196;28;20020;-50
2022/08/21 01:41:25;;;;;;;7.47;1.80;;;14.60;99.90;;;;;;5074361;28;20471;-44
2022/08/21 01:43:51;;;;;;;6.65;1.75;;;14.60;99.90;;;;;;5073928;28;20047;-46
2022/08/21 01:46:17;;;;;;;8.00;1.90;;;14.50;99.90;;;;;;5074232;28;20029;-46
2022/08/21 01:48:43;;;;;;;5.90;1.63;;;14.50;99.90;;;;;;5074183;28;20060;-45
2022/08/21 01:51:09;;;;;;;7.15;1.73;;;14.50;99.90;;;;;;5073976;28;20031;-49
2022/08/21 01:53:36;;;;;;;5.97;1.75;;;14.50;99.90;;;;;;5074058;28;20029;-47
2022/08/21 01:56:06;;;;;;;5.55;1.80;;;14.50;99.90;;;;;;5073889;28;20489;-45
2022/08/21 01:58:33;;;;;;;6.00;2.05;;;14.50;99.90;;;;;;5059941;28;20459;-47
2022/08/21 02:01:01;;;;;;;7.05;2.08;;;14.40;99.90;;;;;;5074284;28;20060;-47
2022/08/21 02:03:28;;;;;;;8.05;1.60;;;14.40;99.90;;;;;;5074090;28;20020;-45
2022/08/21 02:05:54;;;;;;;8.25;2.10;;;14.40;99.90;;;;;;5073904;28;20025;-51
2022/08/21 02:08:22;;;;;;;7.85;1.70;;;14.40;99.90;;;;;;5073793;28;20030;-47
2022/08/21 02:10:49;;;;;;;5.37;1.50;;;14.40;99.90;;;;;;5073890;28;20548;-45
2022/08/21 02:13:15;;;;;;;6.68;1.83;;;14.30;99.90;;;;;;5073578;28;20266;-44
2022/08/21 02:15:41;;;;;;;6.50;1.80;;;14.30;99.90;;;;;;5072229;28;20124;-49
2022/08/21 02:18:07;;;;;;;11.95;1.88;;;14.30;99.90;;;;;;5073799;28;20074;-44
2022/08/21 02:20:38;;;;;;;6.47;1.60;;;14.30;99.90;;;;;;5073330;28;20029;-47
2022/08/21 02:23:05;;;;;;;3.78;1.90;;;14.20;99.90;;;;;;5073500;28;20024;-47
2022/08/21 02:25:32;;;;;;;5.22;1.90;;;14.20;99.90;;;;;;5073375;28;20025;-48
2022/08/21 02:27:59;;;;;;;4.97;1.63;;;14.20;99.90;;;;;;5073410;28;20044;-48
2022/08/21 02:30:29;;;;;;;3.95;1.60;;;14.10;99.90;;;;;;5072653;28;20032;-44
2022/08/21 02:32:55;;;;;;;5.90;1.83;;;14.10;99.90;;;;;;5072070;28;20071;-49
2022/08/21 02:35:22;;;;;;;4.93;1.83;;;14.10;99.90;;;;;;5073297;28;20059;-46
2022/08/21 02:37:57;;;;;;;7.25;2.00;;;14.10;99.90;;;;;;5073385;28;20055;-44
2022/08/21 02:40:25;;;;;;;4.65;1.55;;;14.10;99.90;;;;;;5073373;28;20029;-50
2022/08/21 02:42:51;;;;;;;5.00;1.40;;;14.10;99.90;;;;;;5073424;28;20024;-45
2022/08/21 02:45:18;;;;;;;7.57;1.55;;;14.10;99.90;;;;;;5073132;28;20044;-46
2022/08/21 02:47:53;;;;;;;8.73;1.50;;;14.10;99.90;;;;;;5073047;28;20012;-44
2022/08/21 02:50:23;;;;;;;4.57;1.63;;;14.10;99.90;;;;;;5071703;28;20737;-44
2022/08/21 02:52:49;;;;;;;4.40;1.63;;;14.10;99.90;;;;;;5072755;28;20078;-46
2022/08/21 02:55:15;;;;;;;5.38;1.80;;;14.10;99.90;;;;;;5072880;28;20094;-45
2022/08/21 02:57:40;;;;;;;4.05;1.58;;;14.10;99.90;;;;;;5072820;28;20028;-43
2022/08/21 03:00:08;;;;;;;4.70;1.60;;;14.00;99.90;;;;;;5073033;28;20106;-45
2022/08/21 03:02:34;;;;;;;2.80;1.20;;;14.00;99.90;;;;;;5072758;28;20341;-47
2022/08/21 03:05:00;;;;;;;4.57;1.55;;;14.00;99.90;;;;;;5072408;28;20095;-44
2022/08/21 03:07:26;;;;;;;4.95;1.65;;;14.00;99.90;;;;;;5072722;28;20483;-49
2022/08/21 03:09:52;;;;;;;4.60;1.52;;;13.90;99.90;;;;;;5072312;28;20032;-43
2022/08/21 03:12:17;;;;;;;5.38;1.48;;;14.00;99.90;;;;;;5072425;28;20032;-44
2022/08/21 03:14:43;;;;;;;7.05;1.60;;;13.90;99.90;;;;;;5072427;28;20032;-51
2022/08/21 03:17:09;;;;;;;8.70;1.60;;;13.90;99.90;;;;;;5072207;28;20032;-43
2022/08/21 03:19:34;;;;;;;6.63;1.60;;;14.00;99.90;;;;;;5072307;28;20090;-47
2022/08/21 03:22:00;;;;;;;6.47;1.92;;;13.90;99.90;;;;;;5072312;28;20021;-49
2022/08/21 03:24:26;;;;;;;7.10;1.60;;;13.90;99.90;;;;;;5072386;28;20103;-53
2022/08/21 03:26:51;;;;;;;4.72;1.70;;;13.90;99.90;;;;;;5072324;28;20079;-49
2022/08/21 03:29:17;;;;;;;3.97;1.58;;;13.90;99.90;;;;;;5072410;28;20056;-50
2022/08/21 03:31:43;;;;;;;6.28;1.70;;;13.90;99.90;;;;;;5072150;28;20471;-51
2022/08/21 03:34:10;;;;;;;7.50;1.67;;;13.90;99.90;;;;;;5072219;28;20021;-52
2022/08/21 03:36:36;;;;;;;5.75;1.80;;;13.80;99.90;;;;;;5072250;28;20063;-50
2022/08/21 03:39:02;;;;;;;6.45;1.63;;;13.80;99.90;;;;;;5072149;28;20027;-45
2022/08/21 03:41:28;;;;;;;5.05;1.83;;;13.70;99.90;;;;;;5072309;28;20031;-44
2022/08/21 03:43:53;;;;;;;4.07;1.40;;;13.70;99.90;;;;;;5071725;28;20036;-49
2022/08/21 03:46:19;;;;;;;5.55;1.58;;;13.70;99.90;;;;;;5071993;28;20024;-44
2022/08/21 03:48:45;;;;;;;6.10;1.70;;;13.60;99.90;;;;;;5071779;28;20039;-43
2022/08/21 03:51:10;;;;;;;5.55;1.50;;;13.60;99.90;;;;;;5071904;28;20051;-43
2022/08/21 03:53:36;;;;;;;6.75;1.70;;;13.50;99.90;;;;;;5071783;28;20029;-47
2022/08/21 03:56:03;;;;;;;5.28;1.65;;;13.50;99.90;;;;;;5071518;28;20029;-46
2022/08/21 03:58:29;;;;;;;4.20;1.63;;;13.50;99.90;;;;;;5071623;28;20017;-44
2022/08/21 04:00:58;;;;;;;3.33;1.52;;;13.50;99.90;;;;;;5071680;28;20032;-44
2022/08/21 04:03:26;;;;;;;4.47;1.90;;;13.50;99.90;;;;;;5071729;28;20056;-44
2022/08/21 04:05:52;;;;;;;6.75;1.90;;;13.50;99.90;;;;;;5071536;28;20475;-44
2022/08/21 04:08:21;;;;;;;6.13;2.42;;;13.50;99.90;;;;;;5071682;28;20082;-46
2022/08/21 04:10:50;;;;;;;3.67;1.50;;;13.50;99.90;;;;;;5071381;28;20032;-49
2022/08/21 04:13:16;;;;;;;6.35;1.40;;;13.50;99.90;;;;;;5071467;28;20475;-45
2022/08/21 04:15:42;;;;;;;4.30;1.52;;;13.50;99.90;;;;;;5071197;28;20122;-50
2022/08/21 04:18:09;;;;;;;5.55;1.77;;;13.50;99.90;;;;;;5071239;28;20021;-54
2022/08/21 04:20:35;;;;;;;2.30;1.30;;;13.50;99.90;;;;;;5071361;28;20035;-46
2022/08/21 04:23:02;;;;;;;2.97;1.42;;;13.40;99.90;;;;;;5071397;28;20033;-48
2022/08/21 04:25:28;;;;;;;3.67;1.60;;;13.40;99.90;;;;;;5071338;28;20107;-49
2022/08/21 04:27:54;;;;;;;5.15;1.50;;;13.40;99.90;;;;;;5069873;28;20035;-49
2022/08/21 04:30:20;;;;;;;2.25;1.30;;;13.30;99.90;;;;;;5071150;28;20016;-44
2022/08/21 04:32:48;;;;;;;4.35;1.85;;;13.30;99.90;;;;;;5070891;28;20025;-51
2022/08/21 04:35:16;;;;;;;4.32;1.48;;;13.20;99.90;;;;;;5070925;28;20036;-52
2022/08/21 04:37:42;;;;;;;2.55;1.40;;;13.20;99.90;;;;;;5071105;28;20024;-43
2022/08/21 04:40:09;;;;;;;9.02;1.77;;;13.20;99.90;;;;;;5071061;28;20032;-51
2022/08/21 04:42:44;;;;;;;5.30;1.70;;;13.20;99.90;;;;;;5070937;28;20104;-44
2022/08/21 04:45:26;;;;;;;7.55;1.95;;;13.20;99.90;;;;;;5070910;28;20051;-51
2022/08/21 04:47:56;;;;;;;4.60;1.88;;;13.20;99.90;;;;;;5070632;28;20029;-44
2022/08/21 04:50:35;;;;;;;6.97;1.50;;;13.20;99.90;;;;;;5070764;28;20111;-49
2022/08/21 04:53:01;;;;;;;7.65;2.17;;;13.20;99.90;;;;;;5070603;28;20037;-54
2022/08/21 04:55:28;;;;;;;4.38;1.70;;;13.20;99.90;;;;;;5070437;28;20514;-43
2022/08/21 04:57:55;;;;;;;4.85;1.80;;;13.20;99.90;;;;;;5070800;28;20029;-45
2022/08/21 05:00:24;;;;;;;7.13;1.90;;;13.30;99.90;;;;;;5070976;28;20032;-52
2022/08/21 05:02:54;;;;;;;5.43;1.90;;;13.30;99.90;;;;;;5070949;28;20024;-45
2022/08/21 05:05:20;;;;;;;6.90;1.70;;;13.30;99.90;;;;;;5070784;28;20060;-42
2022/08/21 05:07:46;;;;;;;5.30;1.92;;;13.40;99.90;;;;;;5070639;28;20036;-54
2022/08/21 05:10:13;;;;;;;3.70;1.75;;;13.30;99.90;;;;;;5070845;28;20107;-48
2022/08/21 05:12:41;;;;;;;6.03;1.70;;;13.40;99.90;;;;;;5070839;28;20021;-50
2022/08/21 05:15:07;;;;;;;5.70;1.67;;;13.40;99.90;;;;;;5070234;28;20090;-51
2022/08/21 05:17:33;;;;;;;4.38;1.38;;;13.50;99.90;;;;;;5069809;28;20067;-47
2022/08/21 05:19:59;;;;;;;6.32;1.80;;;13.50;99.90;;;;;;5070725;28;20063;-45
2022/08/21 05:22:25;;;;;;;4.95;1.95;;;13.50;99.90;;;;;;5070598;28;20031;-44
2022/08/21 05:24:52;;;;;;;3.75;1.60;;;13.60;99.90;;;;;;5070477;28;20047;-43
2022/08/21 05:27:17;;;;;;;3.65;1.50;;;13.60;99.90;;;;;;5070712;28;20426;-43
2022/08/21 05:29:43;;;;;;;3.95;1.60;;;13.60;99.90;;;;;;5070643;28;20052;-46
2022/08/21 05:32:11;;;;;;;4.57;1.75;;;13.60;99.90;;;;;;5070533;28;20019;-51
2022/08/21 05:34:37;;;;;;;5.00;1.63;;;13.70;99.90;;;;;;5070627;28;20561;-52
2022/08/21 05:37:04;;;;;;;5.13;1.83;;;13.70;99.90;;;;;;5070482;28;20467;-46
2022/08/21 05:39:29;;;;;;;5.80;2.10;;;13.80;99.90;;;;;;5070583;28;20368;-45
2022/08/21 05:41:55;;;;;;;4.85;1.70;;;13.90;99.90;;;;;;5066177;28;20028;-46
2022/08/21 05:44:21;;;;;;;7.00;1.73;;;14.00;99.90;;;;;;5070178;28;20044;-46
2022/08/21 05:46:46;;;;;;;5.50;1.50;;;14.00;99.90;;;;;;5070484;28;20383;-43
2022/08/21 05:49:12;;;;;;;6.88;1.52;;;14.10;99.90;;;;;;5070290;28;20394;-43
2022/08/21 05:51:40;;;;;;;5.78;1.52;;;14.20;99.90;;;;;;5070249;28;20423;-46
2022/08/21 05:54:06;;;;;;;5.38;1.70;;;14.40;99.90;;;;;;5061272;28;20031;-43
2022/08/21 05:56:32;;;;;;;2.83;1.60;;;14.50;99.90;;;;;;5070079;28;20033;-44
2022/08/21 05:58:58;;;;;;;6.28;1.70;;;14.60;99.90;;;;;;5070062;28;20411;-43
2022/08/21 06:01:24;;;;;;;5.38;1.75;;;14.70;99.90;;;;;;5070260;28;20390;-42
2022/08/21 06:03:50;;;;;;;5.25;1.48;;;14.80;99.90;;;;;;5070828;28;20016;-44
2022/08/21 06:06:16;;;;;;;5.55;1.92;;;14.90;99.90;;;;;;5073689;28;20047;-43
2022/08/21 06:08:42;;;;;;;4.72;1.48;;;14.90;99.90;;;;;;5073617;28;20414;-43
2022/08/21 06:11:08;;;;;;;3.17;1.50;;;14.90;99.90;;;;;;5073620;28;20024;-48
2022/08/21 06:13:35;;;;;;;5.63;1.60;;;15.00;99.90;;;;;;5073850;28;20029;-46
2022/08/21 06:16:08;;;;;;;4.50;1.40;;;15.10;99.90;;;;;;5073555;28;20040;-45
2022/08/21 06:18:35;;;;;;;3.92;1.52;;;15.10;99.90;;;;;;5073547;28;20021;-43
2022/08/21 06:21:02;;;;;;;8.23;2.15;;;15.20;99.90;;;;;;5073068;28;20429;-43
2022/08/21 06:23:27;;;;;;;6.95;1.60;;;15.20;99.90;;;;;;5059993;28;20356;-42
2022/08/21 06:25:53;;;;;;;7.88;1.83;;;15.20;99.90;;;;;;5073541;28;20029;-45
2022/08/21 06:28:19;;;;;;;4.43;1.70;;;15.30;99.90;;;;;;5073334;28;20033;-43
2022/08/21 06:30:44;;;;;;;4.60;1.48;;;15.40;99.90;;;;;;5073470;28;20051;-43
2022/08/21 06:33:10;;;;;;;4.05;1.60;;;15.60;99.90;;;;;;5073414;28;20082;-43
2022/08/21 06:35:36;;;;;;;6.05;1.65;;;15.70;99.90;;;;;;5073048;28;20032;-45
2022/08/21 06:38:02;;;;;;;4.38;2.13;;;15.90;99.90;;;;;;5073550;28;20119;-44
2022/08/21 06:40:29;;;;;;;4.20;1.70;;;16.00;99.90;;;;;;5073141;28;20498;-43
2022/08/21 06:42:55;;;;;;;8.32;2.17;;;16.10;99.90;;;;;;5073251;28;20029;-45
2022/08/21 06:45:21;;;;;;;8.05;1.70;;;16.20;99.90;;;;;;5072860;28;20384;-43
2022/08/21 06:47:47;;;;;;;4.32;1.60;;;16.20;99.90;;;;;;5073094;28;20067;-44
2022/08/21 06:50:13;;;;;;;10.48;2.13;;;16.30;99.90;;;;;;5072922;28;20055;-45
2022/08/21 06:52:39;;;;;;;6.07;1.60;;;16.50;99.90;;;;;;5073020;28;20028;-43
2022/08/21 06:55:07;;;;;;;7.45;1.83;;;16.70;99.90;;;;;;5071626;28;20036;-45
2022/08/21 06:57:34;;;;;;;4.33;1.60;;;17.00;99.90;;;;;;5072913;28;20124;-44
2022/08/21 06:59:59;;;;;;;7.05;2.08;;;17.40;99.90;;;;;;5072847;28;20629;-45
2022/08/21 07:02:25;;;;;;;5.72;2.00;;;17.90;99.90;;;;;;5072746;28;20025;-46
2022/08/21 07:04:51;;;;;;;7.85;1.83;;;18.20;99.90;;;;;;5072716;28;20032;-45
2022/08/21 07:07:17;;;;;;;8.18;2.13;;;18.30;99.90;;;;;;5073069;28;20540;-44
2022/08/21 07:09:43;;;;;;;9.10;2.35;;;18.40;99.90;;;;;;5072650;28;20028;-46
2022/08/21 07:12:09;;;;;;;8.15;1.80;;;18.30;99.90;;;;;;5072567;28;20036;-49
2022/08/21 07:14:35;;;;;;;8.82;1.67;;;18.30;99.90;;;;;;5072106;28;20106;-45
2022/08/21 07:17:01;;;;;;;5.32;1.70;;;18.30;99.90;;;;;;5072559;28;20032;-53
2022/08/21 07:19:27;;;;;;;5.97;1.80;;;18.20;99.90;;;;;;5072301;28;20440;-43
2022/08/21 07:21:58;;;;;;;10.30;2.17;;;18.30;99.90;;;;;;5072666;28;20437;-48
2022/08/21 07:24:24;;;;;;;5.82;1.60;;;18.50;99.90;;;;;;5072361;28;20418;-47
2022/08/21 07:26:50;;;;;;;12.70;2.72;;;18.80;99.90;;;;;;5072368;28;20025;-45
2022/08/21 07:29:16;;;;;;;11.52;1.90;;;19.60;99.90;;;;;;5072314;28;20028;-45
2022/08/21 07:31:42;;;;;;;11.32;1.80;;;20.70;99.90;;;;;;5069204;28;20025;-53
2022/08/21 07:34:08;;;;;;;7.22;1.90;;;21.00;99.90;;;;;;5071956;28;20739;-45
2022/08/21 07:36:34;;;;;;;7.55;1.92;;;21.00;99.90;;;;;;5072082;28;20028;-49
2022/08/21 07:39:00;;;;;;;6.22;1.50;;;20.60;99.90;;;;;;5071878;28;20103;-43
2022/08/21 07:41:28;;;;;;;8.40;1.80;;;20.30;99.90;;;;;;5069676;28;20451;-43
2022/08/21 07:43:58;;;;;;;6.93;1.55;;;20.30;99.90;;;;;;5065788;28;20045;-44
2022/08/21 07:46:24;;;;;;;8.55;1.85;;;20.20;99.90;;;;;;5068366;28;20059;-43
2022/08/21 07:48:50;;;;;;;10.70;1.70;;;20.10;99.90;;;;;;5069881;28;20039;-45
2022/08/21 07:51:17;;;;;;;7.53;1.98;;;19.90;99.90;;;;;;5069854;28;20098;-44
2022/08/21 07:53:51;;;;;;;6.28;1.65;;;19.90;99.90;;;;;;5071208;28;20677;-45
2022/08/21 07:56:17;;;;;;;9.63;1.90;;;19.90;99.90;;;;;;5069758;28;20056;-44
2022/08/21 07:58:43;;;;;;;10.75;2.00;;;19.80;99.90;;;;;;5064639;28;20017;-44
2022/08/21 08:01:09;;;;;;;8.20;1.70;;;19.70;99.90;;;;;;5070655;28;20077;-51
2022/08/21 08:03:36;;;;;;;7.13;1.98;;;19.60;99.90;;;;;;5064512;28;20097;-44
2022/08/21 08:06:04;;;;;;;7.07;2.38;;;19.50;99.90;;;;;;5070122;28;20364;-44
2022/08/21 08:08:30;;;;;;;12.02;2.70;;;19.40;99.90;;;;;;5070802;28;20407;-42
2022/08/21 08:10:57;;;;;;;8.88;2.17;;;19.30;99.90;;;;;;5070844;28;20429;-43
2022/08/21 08:13:24;;;;;;;10.07;1.90;;;19.10;99.90;;;;;;5070762;28;20025;-46
2022/08/21 08:15:49;;;;;;;8.93;2.65;;;19.20;99.90;;;;;;5066726;28;20511;-45
2022/08/21 08:18:15;;;;;;;10.20;1.70;;;19.30;99.90;;;;;;5068635;28;20031;-52
2022/08/21 08:20:41;;;;;;;8.13;1.92;;;19.10;99.90;;;;;;5071150;28;20051;-44
2022/08/21 08:23:10;;;;;;;11.80;2.35;;;19.20;99.90;;;;;;5070258;28;20020;-43
2022/08/21 08:25:35;;;;;;;7.00;1.83;;;19.10;99.90;;;;;;5065484;28;20043;-43
2022/08/21 08:28:01;;;;;;;7.88;1.92;;;19.10;99.90;;;;;;5064659;28;20032;-44
2022/08/21 08:30:27;;;;;;;11.15;2.20;;;19.20;99.90;;;;;;5079019;28;20040;-45
2022/08/21 08:32:52;;;;;;;10.70;2.03;;;19.20;99.90;;;;;;5066970;28;20023;-45
2022/08/21 08:35:18;;;;;;;8.80;1.83;;;19.10;99.90;;;;;;5070637;28;20024;-44
2022/08/21 08:37:45;;;;;;;9.70;1.95;;;19.20;99.90;;;;;;5071530;28;20111;-42
2022/08/21 08:40:28;;;;;;;6.53;1.70;;;19.20;99.90;;;;;;5072209;28;20179;-48
2022/08/21 08:42:54;;;;;;;8.27;1.88;;;19.20;99.90;;;;;;5072336;28;20044;-45
2022/08/21 08:45:24;;;;;;;11.65;2.30;;;19.20;99.90;;;;;;5069340;28;20079;-43
2022/08/21 08:47:57;;;;;;;12.27;2.28;;;19.10;99.90;;;;;;5064270;28;20510;-44
2022/08/21 08:50:32;;;;;;;8.80;2.15;;;19.00;99.90;;;;;;5065188;28;20116;-43
2022/08/21 08:53:08;;;;;;;12.23;1.90;;;19.10;99.90;;;;;;5068199;28;20449;-54
2022/08/21 08:55:40;;;;;;;7.90;1.90;;;19.10;99.90;;;;;;5066295;28;20036;-47
2022/08/21 08:58:08;;;;;;;7.45;2.00;;;19.20;99.90;;;;;;5055621;28;20056;-43
2022/08/21 09:00:34;;;;;;;7.65;1.70;;;19.30;99.90;;;;;;5052816;28;20013;-44
2022/08/21 09:03:02;;;;;;;8.27;1.98;;;19.40;99.90;;;;;;5071522;28;20115;-43
2022/08/21 09:05:44;;;;;;;10.52;2.03;;;19.60;99.90;;;;;;5066764;28;20028;-43
2022/08/21 09:08:31;;;;;;;10.00;2.10;;;19.90;99.90;;;;;;5067890;28;20021;-43
2022/08/21 09:11:04;;;;;;;10.18;1.50;;;21.40;99.90;;;;;;5068878;28;20032;-42
2022/08/21 09:13:40;;;;;;;7.22;1.58;;;23.10;97.80;;;;;;5065764;28;20085;-42
2022/08/21 09:16:28;;;;;;;8.40;1.80;;;23.30;94.90;;;;;;5069263;28;20091;-43
2022/08/21 09:19:37;;;;;;;8.40;1.60;;;23.50;95.60;;;;;;5068853;28;20056;-44
2022/08/21 09:22:17;;;;;;;8.32;1.95;;;24.20;94.30;;;;;;5069783;28;20032;-43
2022/08/21 09:25:22;;;;;;;4.50;1.60;;;24.80;93.40;;;;;;5082081;28;20024;-43
2022/08/21 09:27:48;;;;;;;8.10;2.05;;;24.60;93.30;;;;;;5057774;28;20060;-43
2022/08/21 09:30:14;;;;;;;6.03;1.65;;;24.50;92.80;;;;;;5064341;28;20059;-44
2022/08/21 09:32:40;;;;;;;7.18;1.40;;;24.20;92.40;;;;;;5068663;28;20024;-44
2022/08/21 09:35:05;;;;;;;8.18;1.80;;;23.60;93.00;;;;;;5070391;28;20394;-43
2022/08/21 09:37:44;;;;;;;6.22;1.58;;;23.20;93.90;;;;;;5069089;28;20013;-45
2022/08/21 09:40:35;;;;;;;9.48;2.17;;;22.90;93.90;;;;;;5063934;28;20032;-44
2022/08/21 09:43:02;;;;;;;8.75;2.08;;;22.50;95.00;;;;;;5072451;28;20025;-44
2022/08/21 09:45:29;;;;;;;10.15;1.80;;;22.40;95.40;;;;;;5071686;28;20040;-43
2022/08/21 09:47:55;;;;;;;10.25;2.33;;;22.30;96.50;;;;;;5072409;28;20495;-43
2022/08/21 09:50:26;;;;;;;9.55;1.92;;;22.50;96.60;;;;;;5072057;28;20032;-43
2022/08/21 09:52:56;;;;;;;10.43;1.95;;;22.60;97.00;;;;;;5072098;28;20020;-44
2022/08/21 09:58:38;;;;;;;8.75;1.77;;;24.10;95.50;;;;;;5071934;28;20066;-46
2022/08/21 10:01:06;;;;;;;8.77;1.80;;;24.80;93.20;;;;;;5071637;28;20028;-44
2022/08/21 10:03:31;;;;;;;9.10;1.98;;;24.80;92.20;;;;;;5071864;28;20024;-44
2022/08/21 10:05:59;;;;;;;9.45;1.70;;;24.60;92.00;;;;;;5071878;28;20036;-44
2022/08/21 10:08:26;;;;;;;9.77;2.00;;;24.20;92.30;;;;;;5071839;28;20028;-43
2022/08/21 10:10:57;;;;;;;8.30;1.83;;;23.80;92.90;;;;;;5071750;28;20032;-43
2022/08/21 10:13:59;;;;;;;13.02;2.20;;;23.50;93.10;;;;;;5072391;28;20092;-43
2022/08/21 10:16:52;;;;;;;7.50;2.05;;;23.10;93.70;;;;;;5072231;28;20145;-43
2022/08/21 10:19:39;;;;;;;8.32;1.83;;;22.90;94.20;;;;;;5073445;28;20017;-49
2022/08/21 10:22:10;;;;;;;8.63;2.22;;;22.70;94.40;;;;;;5073563;28;20391;-44
2022/08/21 10:24:51;;;;;;;6.85;1.60;;;23.10;96.30;;;;;;5073434;28;20039;-44
2022/08/21 10:27:51;;;;;;;9.93;2.25;;;23.90;93.70;;;;;;5073680;28;20341;-43
2022/08/21 10:30:43;;;;;;;9.95;2.33;;;24.90;93.00;;;;;;5056084;28;20033;-46
2022/08/21 10:33:24;;;;;;;9.77;2.10;;;25.80;90.10;;;;;;5053952;28;20036;-45
2022/08/21 10:36:19;;;;;;;8.32;1.70;;;25.40;88.80;;;;;;5059890;28;20029;-50
2022/08/21 10:39:12;;;;;;;11.23;2.08;;;25.00;89.60;;;;;;5072686;28;20016;-44
2022/08/21 10:42:09;;;;;;;8.48;2.17;;;24.50;89.60;;;;;;5072664;28;20035;-46
2022/08/21 10:44:58;;;;;;;9.18;2.10;;;24.30;89.50;;;;;;5070249;28;20076;-46
2022/08/21 10:47:41;;;;;;;9.85;1.70;;;23.80;90.50;;;;;;5034075;28;20032;-44
2022/08/21 10:50:19;;;;;;;11.55;2.42;;;23.60;90.70;;;;;;5072713;28;20032;-46
2022/08/21 10:53:26;;;;;;;8.75;1.60;;;23.40;91.70;;;;;;5072872;28;20051;-47
2022/08/21 10:56:18;;;;;;;8.98;1.73;;;23.70;93.30;;;;;;5065750;28;20037;-50
2022/08/21 10:59:13;;;;;;;6.88;1.80;;;24.40;91.80;;;;;;5069662;28;20087;-45
2022/08/21 11:02:05;;;;;;;7.70;2.22;;;25.20;90.60;;;;;;5060673;28;20387;-49
2022/08/21 11:04:37;;;;;;;9.93;1.83;;;25.80;87.40;;;;;;5051315;28;20078;-44
2022/08/21 11:07:25;;;;;;;7.15;2.03;;;25.60;86.40;;;;;;5072387;28;20024;-46
2022/08/21 11:09:53;;;;;;;6.13;1.52;;;25.50;86.80;;;;;;5061927;28;20101;-45
2022/08/21 11:12:26;;;;;;;4.78;1.58;;;25.20;88.60;;;;;;5072572;28;20115;-45
2022/08/21 11:15:07;;;;;;;7.20;1.83;;;25.00;86.70;;;;;;5072503;28;20028;-49
2022/08/21 11:17:49;;;;;;;7.95;1.48;;;24.60;88.20;;;;;;5072305;28;20024;-45
2022/08/21 11:20:41;;;;;;;7.57;1.70;;;24.50;89.10;;;;;;5072044;28;20012;-52
2022/08/21 11:23:25;;;;;;;8.20;1.80;;;24.20;89.60;;;;;;5068178;28;20029;-50
2022/08/21 11:26:17;;;;;;;9.23;1.80;;;24.00;90.30;;;;;;5068226;28;20024;-49
2022/08/21 11:29:01;;;;;;;9.68;2.20;;;23.80;91.10;;;;;;5066831;28;20159;-43
2022/08/21 11:31:45;;;;;;;7.88;1.88;;;23.20;91.70;;;;;;5070273;28;20376;-48
2022/08/21 11:34:25;;;;;;;6.88;1.80;;;22.90;91.70;;;;;;5069326;28;20028;-54
2022/08/21 11:37:04;;;;;;;6.63;1.80;;;23.00;93.00;;;;;;5070540;28;20277;-49
2022/08/21 11:39:38;;;;;;;8.65;1.95;;;23.30;92.80;;;;;;5066774;28;20048;-52
2022/08/21 11:42:15;;;;;;;7.95;1.85;;;23.40;91.90;;;;;;5070289;28;20044;-52
2022/08/21 11:45:08;;;;;;;8.52;2.15;;;23.50;91.90;;;;;;5069467;28;20040;-56
2022/08/21 11:47:52;;;;;;;7.80;1.58;;;23.30;91.40;;;;;;5070221;28;20104;-45
2022/08/21 11:50:24;;;;;;;11.40;2.00;;;22.70;92.20;;;;;;5069973;28;20016;-51
2022/08/21 11:53:17;;;;;;;9.45;2.20;;;22.30;93.20;;;;;;5068741;28;20028;-50
2022/08/21 11:55:48;;;;;;;11.80;1.85;;;22.10;93.80;;;;;;5069374;28;20089;-49
2022/08/21 11:58:17;;;;;;;5.13;1.60;;;22.10;94.00;;;;;;5070054;28;20051;-46
2022/08/21 12:01:05;;;;;;;8.13;1.80;;;22.10;94.50;;;;;;5070030;28;20090;-51
2022/08/21 12:03:38;;;;;;;8.77;1.65;;;22.10;93.80;;;;;;5054791;28;20029;-48
2022/08/21 12:06:10;;;;;;;7.53;1.70;;;22.20;93.90;;;;;;5070196;28;20021;-44
2022/08/21 12:08:43;;;;;;;9.60;2.17;;;22.20;94.50;;;;;;5070348;28;20463;-47
2022/08/21 12:11:23;;;;;;;7.82;1.80;;;22.20;94.10;;;;;;5068069;28;20074;-51
2022/08/21 12:14:04;;;;;;;8.15;2.00;;;22.20;93.90;;;;;;5070443;28;20051;-55
2022/08/21 12:16:38;;;;;;;8.93;1.90;;;22.40;93.60;;;;;;5069991;28;20033;-43
2022/08/21 12:19:24;;;;;;;8.93;1.95;;;22.50;94.10;;;;;;5070314;28;20028;-44
2022/08/21 12:21:51;;;;;;;10.68;2.25;;;22.80;93.90;;;;;;5067943;28;20111;-48
2022/08/21 12:24:42;;;;;;;9.13;2.03;;;23.00;92.70;;;;;;5070445;28;20443;-49
2022/08/21 12:27:19;;;;;;;10.48;2.25;;;23.10;92.90;;;;;;5060250;28;20037;-43
2022/08/21 12:29:51;;;;;;;7.32;1.63;;;23.20;92.40;;;;;;5070128;28;20063;-44
2022/08/21 12:32:17;;;;;;;11.70;2.03;;;23.20;93.50;;;;;;5068987;28;20028;-45
2022/08/21 12:34:54;;;;;;;8.57;1.85;;;23.10;92.50;;;;;;5069718;28;20377;-49
2022/08/21 12:37:42;;;;;;;8.32;1.60;;;23.10;91.90;;;;;;5068541;28;20047;-50
2022/08/21 12:40:16;;;;;;;7.18;2.17;;;23.10;92.10;;;;;;5071849;28;20047;-49
2022/08/21 12:42:52;;;;;;;9.10;2.10;;;23.40;91.70;;;;;;5069290;28;20107;-49
2022/08/21 12:45:29;;;;;;;8.40;1.95;;;23.60;92.20;;;;;;5064076;28;20105;-48
2022/08/21 12:47:58;;;;;;;7.43;1.77;;;23.80;92.20;;;;;;5065515;28;20029;-53
2022/08/21 12:50:45;;;;;;;;;;;23.90;91.90;;;;;;5069945;28;20016;-46
2022/08/21 12:53:20;;;;;;;8.25;1.90;;;23.90;91.40;;;;;;5070884;28;19905;-46
2022/08/21 12:55:45;;;;;;;9.52;2.00;;;24.00;91.80;;;;;;5070748;28;20391;-45
2022/08/21 12:58:23;;;;;;;12.73;1.80;;;24.00;91.00;;;;;;5071018;28;20029;-55
2022/08/21 13:01:18;;;;;;;7.60;1.80;;;24.00;91.00;;;;;;5067288;28;20025;-46
2022/08/21 13:03:45;;;;;;;8.25;2.33;;;24.10;90.00;;;;;;5051406;28;20458;-47
2022/08/21 13:06:22;;;;;;;5.50;1.85;;;24.10;90.00;;;;;;5070842;28;20082;-43